Accueil
METAR-TAF:

METAR-TAF

Aéroports :

Base aérienne de Nörvenich

Nörvenich, Allemagne

latitude: 50-50N, longitude: 006-40E, altitude: 118 m

Observation

Le bulletin a été fait il y a 17 minutes, à 03:32 UTC
Vent 6 kt de sud/sud-est
Température 7°C
Humidité 93%
Pression 1019 hPa
Visibilité: 6000 m

METAR: ETNN 280332Z 15006KT 6000 07/06 Q1019 WHT

Heure: 05:49 (03:49 UTC)

Prévision

Le bulletin a été fait il y a 14 heures et 49 minutes, à 13:00 UTC
Prévision valable du 27 à 14 UTC au 27 à 23 UTC
Vent 5 kt de sud
Visibilité 10 km ou plus
Nuages épars à une hauteur de 3000 ft

TAF: ETNN 271300Z 2714/2723 18005KT 9999 NSW SCT030 BKNKN300 BY ETGL

Observations et prévisions météorologiques de plus de 4000 aéroports (messages METAR et TAF).

Les stations disponibles sont représentées par des disques jaunes et rouges sur la carte.

Passer la souris dessus pour voir le nom de la station.

Cliquer dessus pour voir les observations et prévisions météorologiques.

Pour changer de carte: cliquez sur les boutons verts avec une croix noire pour zoomer, sur le bouton vert avec un tiret pour effectuer un zoom arrière, ou sur les flèches vertes pour les cartes adjacentes.


METAR-TAF: